Time;durP1;ratioP1;P1;durP2;ratioP2;P2;SDS_P1;SDS_P2;PMS_P1;PMS_P2;Temp;Humidity;BMP_temperature;BMP_pressure;BME280_temperature;BME280_humidity;BME280_pressure;Samples;Min_cycle;Max_cycle;Signal;HPM_P1;HPM_P2
2021/04/01 00:00:54;;;;;;;1.70;1.43;;;;;;;19.30;41.61;99940.34;2070530;28;20068;-65
2021/04/01 00:01:54;;;;;;;4.53;1.70;;;;;;;19.31;41.61;99939.34;2069848;28;20045;-66
2021/04/01 00:02:55;;;;;;;2.73;2.20;;;;;;;19.31;41.65;99930.28;2069331;28;20255;-66
2021/04/01 00:03:55;;;;;;;3.37;2.10;;;;;;;19.31;41.57;99935.75;2070868;28;20049;-66
2021/04/01 00:04:56;;;;;;;2.17;1.60;;;;;;;19.31;41.54;99935.75;2071950;28;20025;-65
2021/04/01 00:05:56;;;;;;;3.73;2.17;;;;;;;19.30;41.72;99934.00;2071014;28;20095;-65
2021/04/01 00:06:57;;;;;;;2.73;1.87;;;;;;;19.31;41.62;99938.47;2069611;28;20467;-66
2021/04/01 00:07:57;;;;;;;2.67;1.90;;;;;;;19.31;41.80;99935.75;2072023;28;20029;-66
2021/04/01 00:08:58;;;;;;;2.37;1.53;;;;;;;19.30;41.69;99937.59;2071542;28;20045;-65
2021/04/01 00:09:59;;;;;;;2.00;1.70;;;;;;;19.30;41.72;99934.88;2071815;28;20018;-65
2021/04/01 00:11:00;;;;;;;3.30;1.77;;;;;;;19.30;41.80;99934.88;2061872;28;20041;-66
2021/04/01 00:12:01;;;;;;;2.53;2.05;;;;;;;19.28;41.86;99924.09;2064142;28;20839;-66
2021/04/01 00:13:02;;;;;;;2.83;1.70;;;;;;;19.30;41.90;99923.09;2071839;28;20508;-66
2021/04/01 00:14:04;;;;;;;2.43;1.60;;;;;;;19.30;41.73;99929.41;2070724;28;20032;-66
2021/04/01 00:15:07;;;;;;;3.35;1.80;;;;;;;19.30;41.83;99928.53;2071867;28;20080;-66
2021/04/01 00:16:08;;;;;;;2.95;1.70;;;;;;;19.30;41.96;99928.53;2064440;28;20105;-65
2021/04/01 00:17:09;;;;;;;2.17;1.70;;;;;;;19.31;41.85;99927.56;2063183;28;20592;-65
2021/04/01 00:18:17;;;;;;;2.00;1.65;;;;;;;19.30;41.65;99926.66;2071767;28;20033;-65
2021/04/01 00:19:18;;;;;;;3.08;2.15;;;;;;;19.30;41.82;99914.88;2068878;28;20034;-65
2021/04/01 00:20:19;;;;;;;2.37;1.83;;;;;;;19.28;41.73;99920.53;2071582;28;20030;-66
2021/04/01 00:21:19;;;;;;;2.63;1.67;;;;;;;19.29;41.85;99924.97;2070599;28;20508;-65
2021/04/01 00:22:19;;;;;;;4.60;2.00;;;;;;;19.28;41.67;99926.00;2071554;28;20108;-65
2021/04/01 00:23:20;;;;;;;2.43;1.97;;;;;;;19.29;41.77;99924.97;2063678;28;20032;-66
2021/04/01 00:24:20;;;;;;;1.90;1.50;;;;;;;19.27;41.86;99925.09;2064706;28;20030;-65
2021/04/01 00:25:22;;;;;;;2.57;1.70;;;;;;;19.27;41.89;99918.78;2071788;28;20078;-66
2021/04/01 00:26:23;;;;;;;1.75;1.50;;;;;;;19.27;41.90;99919.63;2064991;28;20022;-65
2021/04/01 00:27:23;;;;;;;2.60;1.90;;;;;;;19.27;41.96;99919.63;2064699;28;20073;-65
2021/04/01 00:28:24;;;;;;;3.50;1.80;;;;;;;19.26;41.84;99920.66;2071001;28;20030;-66
2021/04/01 00:29:24;;;;;;;1.70;1.50;;;;;;;19.27;41.92;99916.91;2069667;28;20496;-66
2021/04/01 00:30:25;;;;;;;2.03;1.70;;;;;;;19.27;41.97;99919.63;2071649;28;20147;-65
2021/04/01 00:31:26;;;;;;;2.90;2.30;;;;;;;19.27;41.92;99913.31;2070783;28;20112;-66
2021/04/01 00:32:26;;;;;;;3.80;1.93;;;;;;;19.27;41.88;99913.31;2070631;28;20049;-65
2021/04/01 00:33:26;;;;;;;3.77;1.70;;;;;;;19.26;41.80;99912.47;2068166;28;20030;-65
2021/04/01 00:34:27;;;;;;;3.07;1.97;;;;;;;19.26;41.75;99917.09;2069118;28;20032;-66
2021/04/01 00:35:27;;;;;;;3.20;1.93;;;;;;;19.27;41.72;99913.31;2063668;28;20160;-65
2021/04/01 00:36:28;;;;;;;2.00;1.70;;;;;;;19.26;41.83;99917.09;2067731;28;20030;-66
2021/04/01 00:37:28;;;;;;;2.20;1.60;;;;;;;19.25;41.75;99908.00;2064802;28;20138;-66
2021/04/01 00:38:29;;;;;;;2.33;1.87;;;;;;;19.25;41.71;99910.72;2060776;28;20041;-65
2021/04/01 00:39:29;;;;;;;3.27;1.60;;;;;;;19.25;41.88;99902.53;2070853;28;20053;-65
2021/04/01 00:40:30;;;;;;;2.67;1.90;;;;;;;19.25;41.91;99902.53;2070652;28;20021;-65
2021/04/01 00:41:30;;;;;;;3.97;1.73;;;;;;;19.26;41.88;99900.69;2069511;28;20076;-65
2021/04/01 00:42:32;;;;;;;2.33;1.80;;;;;;;19.25;41.87;99902.53;2067436;28;20121;-66
2021/04/01 00:43:33;;;;;;;5.93;2.15;;;;;;;19.25;41.80;99905.25;2070345;28;20025;-66
2021/04/01 00:44:34;;;;;;;2.70;2.10;;;;;;;19.25;42.03;99899.81;2070963;28;20037;-65
2021/04/01 00:45:35;;;;;;;2.58;1.58;;;;;;;19.24;41.89;99903.56;2068811;28;20129;-66
2021/04/01 00:46:36;;;;;;;2.93;1.80;;;;;;;19.24;41.92;99892.63;2071611;28;20036;-65
2021/04/01 00:47:44;;;;;;;2.67;1.83;;;;;;;19.24;41.98;99902.72;2070890;28;20032;-65
2021/04/01 00:48:45;;;;;;;2.70;2.03;;;;;;;19.24;42.12;99892.63;2070904;28;20499;-65
2021/04/01 00:49:45;;;;;;;3.07;2.03;;;;;;;19.23;41.90;99896.38;2071676;28;20129;-66
2021/04/01 00:50:46;;;;;;;1.67;1.40;;;;;;;19.22;42.08;99891.91;2069720;28;20061;-65
2021/04/01 00:51:47;;;;;;;2.40;1.70;;;;;;;19.23;41.91;99893.66;2071697;28;20033;-66
2021/04/01 00:52:47;;;;;;;2.93;1.73;;;;;;;19.24;42.00;99892.63;2069897;28;20564;-66
2021/04/01 00:53:48;;;;;;;3.10;2.03;;;;;;;19.24;41.93;99898.09;2068862;28;20033;-65
2021/04/01 00:54:48;;;;;;;2.47;1.93;;;;;;;19.24;41.92;99891.78;2071698;28;20022;-65
2021/04/01 00:55:49;;;;;;;2.00;1.33;;;;;;;19.23;41.82;99895.50;2070979;28;20124;-66
2021/04/01 00:56:49;;;;;;;2.77;1.70;;;;;;;19.24;42.01;99891.78;2071562;28;20060;-66
2021/04/01 00:57:52;;;;;;;2.20;1.60;;;;;;;19.23;42.05;99896.38;2070423;28;20026;-65
2021/04/01 00:58:54;;;;;;;2.15;1.60;;;;;;;19.24;42.10;99886.31;2070519;28;20026;-65
2021/04/01 00:59:55;;;;;;;3.97;1.70;;;;;;;19.22;42.07;99894.66;2071693;28;20029;-65
2021/04/01 01:01:12;;;;;;;2.30;1.33;;;;;;;19.23;41.97;99884.56;2070649;28;20037;-65
2021/04/01 01:02:12;;;;;;;2.05;1.67;;;;;;;19.22;41.99;99883.72;2068735;28;20026;-65
2021/04/01 01:03:13;;;;;;;2.10;1.60;;;;;;;19.22;41.87;99889.19;2071448;28;20545;-65
2021/04/01 01:04:14;;;;;;;3.37;2.10;;;;;;;19.23;41.91;99888.19;2069334;28;20028;-65
2021/04/01 01:05:15;;;;;;;2.53;1.75;;;;;;;19.22;41.91;99886.47;2069601;28;20061;-65
2021/04/01 01:06:15;;;;;;;2.75;1.90;;;;;;;19.22;42.02;99883.72;2070851;28;20096;-65
2021/04/01 01:07:16;;;;;;;2.27;1.80;;;;;;;19.22;41.94;99878.25;2070791;28;20060;-66
2021/04/01 01:08:16;;;;;;;3.70;1.80;;;;;;;19.22;42.06;99880.13;2069889;28;20061;-65
2021/04/01 01:09:17;;;;;;;4.50;2.50;;;;;;;19.23;41.92;99879.13;2069120;28;20891;-65
2021/04/01 01:10:22;;;;;;;2.47;1.53;;;;;;;19.22;41.97;99872.78;2068704;28;20030;-66
2021/04/01 01:11:23;;;;;;;2.67;2.08;;;;;;;19.22;42.05;99875.53;2070219;28;20576;-65
2021/04/01 01:12:23;;;;;;;2.90;1.63;;;;;;;19.22;42.03;99878.25;2070969;28;20416;-66
2021/04/01 01:13:24;;;;;;;2.10;1.73;;;;;;;19.22;42.02;99877.41;2062718;28;20480;-66
2021/04/01 01:14:24;;;;;;;2.17;1.53;;;;;;;19.21;41.83;99875.69;2071112;28;20022;-66
2021/04/01 01:15:25;;;;;;;2.87;2.10;;;;;;;19.22;41.98;99878.25;2066043;28;20021;-65
2021/04/01 01:16:26;;;;;;;3.28;2.35;;;;;;;19.23;41.95;99876.38;2071445;28;20030;-65
2021/04/01 01:17:26;;;;;;;1.90;1.63;;;;;;;19.22;41.84;99872.78;2070331;28;20025;-66
2021/04/01 01:18:27;;;;;;;2.40;1.67;;;;;;;19.22;41.91;99872.78;2070223;28;20032;-66
2021/04/01 01:19:38;;;;;;;1.95;1.45;;;;;;;19.21;42.01;99871.09;2070307;28;20547;-66
2021/04/01 01:20:39;;;;;;;2.88;1.88;;;;;;;19.22;41.86;99877.41;2069929;28;20769;-66
2021/04/01 01:21:39;;;;;;;4.80;1.97;;;;;;;19.22;41.80;99871.94;2069895;28;20385;-65
2021/04/01 01:22:42;;;;;;;2.77;1.90;;;;;;;19.22;41.84;99875.53;2069587;28;20088;-65
2021/04/01 01:23:44;;;;;;;2.55;1.65;;;;;;;19.21;41.93;99864.78;2063232;28;20076;-65
2021/04/01 01:24:45;;;;;;;2.13;1.58;;;;;;;19.22;41.99;99864.59;2065644;28;20022;-66
2021/04/01 01:25:46;;;;;;;2.95;1.90;;;;;;;19.22;41.89;99864.59;2069149;28;20109;-65
2021/04/01 01:26:47;;;;;;;2.87;2.13;;;;;;;19.22;41.76;99861.00;2065315;28;20030;-65
2021/04/01 01:27:48;;;;;;;1.97;1.60;;;;;;;19.22;41.74;99867.31;2070804;28;20064;-65
2021/04/01 01:28:49;;;;;;;3.28;2.00;;;;;;;19.23;41.70;99870.91;2063050;28;20061;-66
2021/04/01 01:29:49;;;;;;;3.23;1.77;;;;;;;19.22;41.84;99864.59;2066147;28;20026;-65
2021/04/01 01:30:51;;;;;;;2.93;2.07;;;;;;;19.23;41.48;99863.59;2064535;28;20066;-65
2021/04/01 01:31:51;;;;;;;2.78;1.70;;;;;;;19.22;41.67;99867.31;2068565;28;20022;-66
2021/04/01 01:32:58;;;;;;;2.40;1.53;;;;;;;19.22;41.69;99867.31;2070283;28;20053;-65
2021/04/01 01:33:58;;;;;;;2.75;1.70;;;;;;;19.21;41.76;99860.16;2068462;28;20087;-65
2021/04/01 01:34:59;;;;;;;1.93;1.70;;;;;;;19.22;41.84;99867.31;2067438;28;20564;-65
2021/04/01 01:35:59;;;;;;;3.93;1.60;;;;;;;19.23;41.87;99862.72;2068383;28;20037;-65
2021/04/01 01:36:59;;;;;;;2.43;1.60;;;;;;;19.22;41.91;99867.31;2070120;28;20449;-65
2021/04/01 01:38:06;;;;;;;2.20;1.67;;;;;;;19.21;41.77;99864.78;2069863;28;20036;-65
2021/04/01 01:39:06;;;;;;;5.72;2.10;;;;;;;19.22;41.87;99867.31;2069616;28;20060;-66
2021/04/01 01:40:07;;;;;;;3.60;1.97;;;;;;;19.21;41.92;99865.63;2070701;28;20160;-65
2021/04/01 01:41:08;;;;;;;2.83;2.23;;;;;;;19.22;41.87;99872.78;2069187;28;20029;-65
2021/04/01 01:42:08;;;;;;;3.70;1.97;;;;;;;19.21;41.86;99865.63;2069256;28;20045;-65
2021/04/01 01:43:11;;;;;;;2.30;1.60;;;;;;;19.21;41.93;99864.78;2070990;28;20026;-66
2021/04/01 01:44:12;;;;;;;2.30;1.48;;;;;;;19.21;41.82;99876.56;2066422;28;20090;-66
2021/04/01 01:45:13;;;;;;;9.90;2.43;;;;;;;19.22;42.10;99871.94;2064959;28;20034;-65
2021/04/01 01:46:14;;;;;;;3.15;1.98;;;;;;;19.21;42.03;99871.09;2062968;28;20030;-65
2021/04/01 01:47:14;;;;;;;2.13;1.80;;;;;;;19.21;41.93;99871.09;2064245;28;20084;-65
2021/04/01 01:48:14;;;;;;;4.20;2.23;;;;;;;19.22;42.17;99871.94;2063196;28;20052;-65
2021/04/01 01:49:15;;;;;;;2.70;1.67;;;;;;;19.21;42.18;99868.34;2068936;28;20025;-66
2021/04/01 01:50:17;;;;;;;4.53;2.63;;;;;;;19.21;41.98;99871.09;2070755;28;20034;-66
2021/04/01 01:51:18;;;;;;;3.33;1.85;;;;;;;19.22;42.10;99871.94;2069508;28;20022;-65
2021/04/01 01:52:18;;;;;;;3.07;1.70;;;;;;;19.22;41.99;99866.47;2069469;28;20073;-66
2021/04/01 01:53:19;;;;;;;2.07;1.50;;;;;;;19.20;42.16;99863.88;2068243;28;20036;-65
2021/04/01 01:54:20;;;;;;;2.63;1.70;;;;;;;19.20;42.10;99863.03;2070958;28;20025;-66
2021/04/01 01:55:20;;;;;;;5.13;2.20;;;;;;;19.19;41.96;99867.66;2070497;28;20033;-65
2021/04/01 01:56:22;;;;;;;3.37;2.30;;;;;;;19.19;42.06;99866.78;2070629;28;20018;-65
2021/04/01 01:57:22;;;;;;;2.72;1.92;;;;;;;19.19;41.96;99866.78;2070501;28;20022;-65
2021/04/01 01:58:23;;;;;;;2.10;1.70;;;;;;;19.18;41.93;99865.94;2070712;28;20030;-66
2021/04/01 01:59:24;;;;;;;8.20;1.83;;;;;;;19.19;42.00;99861.34;2069868;28;20032;-66
2021/04/01 02:00:33;;;;;;;2.55;1.98;;;;;;;19.19;41.77;99862.19;2070400;28;20513;-67
2021/04/01 02:01:34;;;;;;;3.15;1.83;;;;;;;19.19;41.79;99867.66;2064916;28;20034;-65
2021/04/01 02:02:35;;;;;;;3.63;1.63;;;;;;;19.17;41.99;99864.22;2068911;28;20111;-65
2021/04/01 02:03:35;;;;;;;3.13;1.40;;;;;;;19.18;41.92;99865.94;2069217;28;20025;-65
2021/04/01 02:04:36;;;;;;;2.43;1.70;;;;;;;19.18;42.01;99865.06;2066728;28;20104;-65
2021/04/01 02:05:38;;;;;;;1.83;1.67;;;;;;;19.18;41.95;99859.59;2068506;28;20113;-66
2021/04/01 02:06:39;;;;;;;3.45;1.80;;;;;;;19.18;42.08;99852.28;2069840;28;20501;-66
2021/04/01 02:07:40;;;;;;;1.93;1.70;;;;;;;19.19;42.03;99861.34;2068927;28;20454;-65
2021/04/01 02:08:40;;;;;;;2.80;1.83;;;;;;;19.18;42.06;99855.00;2070760;28;20101;-65
2021/04/01 02:09:48;;;;;;;2.63;1.93;;;;;;;19.17;42.05;99868.81;2068520;28;20032;-66
2021/04/01 02:10:50;;;;;;;4.00;1.65;;;;;;;19.17;41.98;99850.53;2070015;28;20033;-66
2021/04/01 02:11:51;;;;;;;2.35;1.73;;;;;;;19.17;41.96;99858.75;2063387;28;20276;-65
2021/04/01 02:12:53;;;;;;;3.57;1.80;;;;;;;19.18;41.92;99860.47;2070983;28;20076;-65
2021/04/01 02:13:55;;;;;;;2.70;1.77;;;;;;;19.18;42.00;99857.75;2069624;28;20017;-65
2021/04/01 02:14:56;;;;;;;2.42;2.05;;;;;;;19.17;42.09;99858.75;2068921;28;20175;-65
2021/04/01 02:15:56;;;;;;;1.90;1.60;;;;;;;19.18;42.03;99854.13;2069247;28;20068;-65
2021/04/01 02:16:57;;;;;;;3.57;2.33;;;;;;;19.18;41.89;99859.59;2070159;28;20034;-65
2021/04/01 02:18:18;;;;;;;4.10;2.00;;;;;;;19.15;42.14;99860.78;2070687;28;20631;-65
2021/04/01 02:19:19;;;;;;;2.42;1.73;;;;;;;19.16;41.87;99861.66;2070445;28;20022;-66
2021/04/01 02:20:20;;;;;;;3.30;1.67;;;;;;;19.15;42.02;99855.31;2068422;28;20025;-65
2021/04/01 02:21:21;;;;;;;4.23;1.60;;;;;;;19.15;41.87;99849.00;2070864;28;20030;-65
2021/04/01 02:22:22;;;;;;;3.17;1.98;;;;;;;19.15;41.92;99849.00;2069779;28;20718;-65
2021/04/01 02:23:33;;;;;;;4.07;1.60;;;;;;;19.15;42.03;99849.00;2069477;28;20841;-65
2021/04/01 02:24:34;;;;;;;3.38;1.90;;;;;;;19.16;41.94;99851.56;2067347;28;20030;-66
2021/04/01 02:25:34;;;;;;;2.97;1.60;;;;;;;19.16;42.07;99854.31;2069749;28;20128;-66
2021/04/01 02:26:35;;;;;;;2.90;2.07;;;;;;;19.17;42.02;99855.16;2070726;28;20459;-65
2021/04/01 02:27:35;;;;;;;3.07;1.40;;;;;;;19.16;42.23;99848.84;2069803;28;20838;-66
2021/04/01 02:28:37;;;;;;;2.60;1.57;;;;;;;19.16;42.37;99857.03;2070730;28;20021;-65
2021/04/01 02:29:37;;;;;;;3.40;2.03;;;;;;;19.16;42.29;99846.09;2069395;28;20030;-65
2021/04/01 02:30:40;;;;;;;2.73;1.63;;;;;;;19.16;42.22;99851.56;2070229;28;20033;-65
2021/04/01 02:31:40;;;;;;;1.90;1.60;;;;;;;19.16;42.27;99845.25;2067863;28;20656;-66
2021/04/01 02:32:41;;;;;;;2.33;1.53;;;;;;;19.15;42.46;99838.91;2070669;28;20441;-65
2021/04/01 02:33:41;;;;;;;3.17;1.77;;;;;;;19.16;42.45;99851.56;2067089;28;20596;-65
2021/04/01 02:34:42;;;;;;;2.67;1.53;;;;;;;19.15;42.16;99838.06;2065097;28;20022;-65
2021/04/01 02:35:42;;;;;;;3.27;1.80;;;;;;;19.15;42.33;99833.44;2067900;28;20029;-66
2021/04/01 02:36:43;;;;;;;2.87;1.90;;;;;;;19.15;42.40;99838.91;2069534;28;20508;-65
2021/04/01 02:37:43;;;;;;;2.10;1.60;;;;;;;19.15;42.47;99836.19;2070078;28;20026;-65
2021/04/01 02:38:44;;;;;;;2.83;1.90;;;;;;;19.14;42.21;99839.94;2067614;28;20022;-65
2021/04/01 02:39:44;;;;;;;3.60;2.20;;;;;;;19.15;42.44;99841.66;2070912;28;20077;-66
2021/04/01 02:40:45;;;;;;;1.83;1.50;;;;;;;19.14;42.41;99836.34;2070202;28;20811;-65
2021/04/01 02:41:46;;;;;;;3.20;1.80;;;;;;;19.14;42.36;99842.66;2070304;28;20253;-66
2021/04/01 02:42:47;;;;;;;4.23;1.83;;;;;;;19.13;42.41;99840.94;2067942;28;20026;-66
2021/04/01 02:43:47;;;;;;;2.08;1.70;;;;;;;19.14;42.33;99837.22;2070098;28;20034;-65
2021/04/01 02:44:48;;;;;;;4.43;2.40;;;;;;;19.13;42.36;99843.66;2070493;28;20568;-66
2021/04/01 02:45:48;;;;;;;2.83;1.27;;;;;;;19.14;42.55;99845.41;2070231;28;20409;-65
2021/04/01 02:46:48;;;;;;;10.80;2.50;;;;;;;19.14;42.47;99842.66;2070945;28;20049;-66
2021/04/01 02:47:49;;;;;;;2.13;1.57;;;;;;;19.14;42.45;99842.66;2069460;28;20026;-66
2021/04/01 02:48:49;;;;;;;3.13;1.63;;;;;;;19.13;42.32;99840.94;2069992;28;20104;-65
2021/04/01 02:49:50;;;;;;;2.27;1.70;;;;;;;19.14;42.58;99834.47;2070930;28;20060;-65
2021/04/01 02:50:52;;;;;;;2.30;1.37;;;;;;;19.13;42.49;99840.94;2068625;28;20044;-66
2021/04/01 02:51:53;;;;;;;2.20;1.60;;;;;;;19.13;42.58;99840.94;2070667;28;20048;-65
2021/04/01 02:52:53;;;;;;;4.07;1.83;;;;;;;19.11;42.55;99837.53;2068446;28;20026;-65
2021/04/01 02:53:54;;;;;;;2.13;1.70;;;;;;;19.12;42.67;99836.50;2068979;28;20022;-65
2021/04/01 02:54:54;;;;;;;4.93;1.60;;;;;;;19.14;42.60;99842.66;2067340;28;20030;-65
2021/04/01 02:55:55;;;;;;;2.43;1.80;;;;;;;19.13;42.65;99846.41;2070016;28;20037;-65
2021/04/01 02:56:56;;;;;;;3.38;2.08;;;;;;;19.14;42.62;99844.56;2070446;28;20036;-65
2021/04/01 02:57:56;;;;;;;3.50;1.60;;;;;;;19.12;42.57;99839.22;2070351;28;20037;-66
2021/04/01 02:58:57;;;;;;;2.90;1.50;;;;;;;19.13;42.55;99840.09;2067398;28;20025;-66
2021/04/01 02:59:58;;;;;;;3.40;1.90;;;;;;;19.14;42.49;99836.34;2069764;28;20045;-65
2021/04/01 03:00:59;;;;;;;3.33;1.80;;;;;;;19.13;42.58;99835.47;2067213;28;20088;-65
2021/04/01 03:01:59;;;;;;;3.60;1.33;;;;;;;19.12;42.52;99833.75;2070486;28;20176;-65
2021/04/01 03:03:08;;;;;;;2.90;2.00;;;;;;;19.12;42.55;99832.91;2068376;28;20121;-65
2021/04/01 03:04:10;;;;;;;2.55;1.90;;;;;;;19.13;42.56;99829.16;2061280;28;20030;-66
2021/04/01 03:05:12;;;;;;;3.40;1.70;;;;;;;19.12;42.57;99833.75;2059642;28;20056;-65
2021/04/01 03:06:12;;;;;;;3.20;1.77;;;;;;;19.12;42.47;99830.19;2069289;28;20478;-65
2021/04/01 03:07:13;;;;;;;2.03;1.40;;;;;;;19.13;42.47;99819.06;2070021;28;20018;-65
2021/04/01 03:08:13;;;;;;;1.73;1.37;;;;;;;19.11;42.49;99821.13;2069758;28;20113;-65
2021/04/01 03:09:14;;;;;;;2.97;1.93;;;;;;;19.12;42.75;99822.84;2069738;28;20612;-66
2021/04/01 03:10:14;;;;;;;2.20;1.77;;;;;;;19.10;42.67;99824.88;2069189;28;20033;-66
2021/04/01 03:11:15;;;;;;;3.27;1.60;;;;;;;19.12;42.62;99822.84;2069490;28;20026;-65
2021/04/01 03:12:15;;;;;;;4.03;1.67;;;;;;;19.12;42.51;99827.44;2065462;28;20645;-66
2021/04/01 03:13:16;;;;;;;2.23;1.80;;;;;;;19.11;42.55;99823.88;2070555;28;20790;-65
2021/04/01 03:14:16;;;;;;;3.07;1.40;;;;;;;19.12;42.71;99822.00;2068901;28;20034;-66
2021/04/01 03:15:17;;;;;;;3.93;1.90;;;;;;;19.12;42.75;99822.00;2068406;28;20056;-65
2021/04/01 03:16:17;;;;;;;3.10;1.90;;;;;;;19.11;42.84;99815.66;2070516;28;20724;-65
2021/04/01 03:17:18;;;;;;;5.03;2.10;;;;;;;19.11;42.88;99818.41;2069735;28;20026;-65
2021/04/01 03:18:20;;;;;;;2.93;1.77;;;;;;;19.12;42.84;99816.53;2065286;28;20015;-65
2021/04/01 03:19:20;;;;;;;2.47;1.92;;;;;;;19.11;42.73;99815.66;2067789;28;20029;-65
2021/04/01 03:20:21;;;;;;;1.67;1.33;;;;;;;19.12;42.67;99817.38;2069119;28;20042;-65
2021/04/01 03:21:21;;;;;;;2.10;1.20;;;;;;;19.12;42.64;99817.38;2069076;28;20030;-65
2021/04/01 03:22:22;;;;;;;2.83;1.60;;;;;;;19.12;42.67;99811.91;2069899;28;20366;-66
2021/04/01 03:23:23;;;;;;;2.20;1.83;;;;;;;19.11;42.65;99810.22;2065177;28;20022;-65
2021/04/01 03:24:23;;;;;;;3.00;1.80;;;;;;;19.11;42.72;99809.31;2067498;28;20055;-65
2021/04/01 03:25:24;;;;;;;4.37;2.30;;;;;;;19.11;42.78;99814.78;2068430;28;20030;-65
2021/04/01 03:26:24;;;;;;;2.30;1.63;;;;;;;19.11;42.74;99810.22;2068834;28;20026;-66
2021/04/01 03:27:25;;;;;;;4.10;1.70;;;;;;;19.12;42.71;99817.38;2070025;28;20032;-65
2021/04/01 03:28:26;;;;;;;2.60;1.57;;;;;;;19.11;42.79;99812.94;2065377;28;20037;-65
2021/04/01 03:29:27;;;;;;;3.13;2.03;;;;;;;19.11;43.06;99810.22;2066491;28;20538;-66
2021/04/01 03:30:27;;;;;;;3.47;2.00;;;;;;;19.11;42.82;99803.84;2069624;28;20030;-65
2021/04/01 03:31:28;;;;;;;4.50;1.90;;;;;;;19.10;42.83;99803.00;2070262;28;20032;-65
2021/04/01 03:32:30;;;;;;;2.30;1.40;;;;;;;19.11;42.96;99803.84;2069800;28;20034;-65
2021/04/01 03:33:31;;;;;;;;;;;;;;;19.06;42.90;99807.09;2068832;28;20469;-65
2021/04/01 03:34:31;;;;;;;4.30;1.55;;;;;;;19.07;43.06;99814.25;2069403;28;19917;-66
2021/04/01 03:35:32;;;;;;;6.40;2.30;;;;;;;19.08;42.96;99810.50;2066793;28;20034;-65
2021/04/01 03:36:32;;;;;;;2.73;1.50;;;;;;;19.07;43.10;99808.78;2070194;28;20758;-65
2021/04/01 03:37:33;;;;;;;4.40;1.80;;;;;;;19.09;43.05;99811.38;2070429;28;20101;-66
2021/04/01 03:38:34;;;;;;;3.90;1.83;;;;;;;19.09;42.79;99806.78;2067738;28;20026;-66
2021/04/01 03:39:34;;;;;;;2.67;1.70;;;;;;;19.09;42.99;99806.78;2070311;28;20029;-65
2021/04/01 03:40:35;;;;;;;2.37;1.60;;;;;;;19.10;42.89;99810.34;2067716;28;20378;-65
2021/04/01 03:41:35;;;;;;;2.60;1.77;;;;;;;19.09;43.04;99801.31;2069007;28;20026;-66
2021/04/01 03:42:38;;;;;;;4.23;1.77;;;;;;;19.10;43.13;99810.34;2068355;28;20030;-65
2021/04/01 03:43:38;;;;;;;3.47;2.05;;;;;;;19.09;42.98;99805.91;2067085;28;20027;-66
2021/04/01 03:44:39;;;;;;;2.53;1.50;;;;;;;19.09;43.06;99806.78;2070015;28;20036;-65
2021/04/01 03:45:40;;;;;;;2.70;1.63;;;;;;;19.09;42.84;99805.91;2067676;28;20030;-66
2021/04/01 03:46:40;;;;;;;2.17;1.47;;;;;;;19.09;43.06;99804.03;2069606;28;20017;-65
2021/04/01 03:47:42;;;;;;;2.13;1.67;;;;;;;19.10;42.95;99808.47;2070109;28;20100;-66
2021/04/01 03:48:43;;;;;;;2.15;1.67;;;;;;;19.10;43.16;99808.47;2066801;28;20397;-65
2021/04/01 03:49:43;;;;;;;2.77;1.57;;;;;;;19.09;43.04;99808.66;2069343;28;20073;-65
2021/04/01 03:50:44;;;;;;;3.03;1.73;;;;;;;19.09;42.87;99806.78;2067041;28;20021;-65
2021/04/01 03:51:45;;;;;;;2.10;1.80;;;;;;;19.09;43.16;99806.78;2068581;28;20720;-66
2021/04/01 03:52:45;;;;;;;2.83;2.07;;;;;;;19.09;43.14;99811.38;2067988;28;20269;-66
2021/04/01 03:53:45;;;;;;;4.37;2.10;;;;;;;19.08;43.01;99802.31;2069055;28;20026;-65
2021/04/01 03:54:50;;;;;;;1.87;1.40;;;;;;;19.09;43.20;99811.38;2069948;28;20025;-66
2021/04/01 03:55:51;;;;;;;2.42;2.00;;;;;;;19.08;43.17;99807.75;2065188;28;20042;-66
2021/04/01 03:56:52;;;;;;;3.22;1.80;;;;;;;19.08;43.12;99809.66;2068933;28;20429;-66
2021/04/01 03:57:58;;;;;;;5.10;1.77;;;;;;;19.07;42.97;99808.78;2067783;28;20715;-66
2021/04/01 03:59:11;;;;;;;2.30;1.70;;;;;;;19.07;43.15;99808.78;2067404;28;20779;-65
2021/04/01 04:00:24;;;;;;;1.90;1.70;;;;;;;19.06;42.99;99805.22;2070159;28;20109;-65
2021/04/01 04:04:18;;;;;;;5.85;2.45;;;;;;;19.06;43.06;99807.09;2068824;28;20408;-65
2021/04/01 04:08:06;;;;;;;2.10;1.50;;;;;;;19.05;43.10;99808.94;2063936;28;20030;-67
2021/04/01 04:09:28;;;;;;;4.63;1.45;;;;;;;19.04;43.18;99814.59;2069562;28;20072;-65
2021/04/01 04:10:38;;;;;;;3.60;2.22;;;;;;;19.03;43.20;99812.84;2069872;28;20113;-66
2021/04/01 04:15:17;;;;;;;4.22;1.77;;;;;;;19.03;43.05;99815.56;2057081;28;21684;-65
2021/04/01 04:16:18;;;;;;;3.92;2.17;;;;;;;19.03;43.22;99815.56;2069183;28;20037;-65
2021/04/01 04:17:19;;;;;;;2.80;1.60;;;;;;;19.01;43.16;99810.28;2070752;28;20025;-65
2021/04/01 04:18:20;;;;;;;2.80;1.90;;;;;;;19.03;43.26;99816.47;2071270;28;20445;-65
2021/04/01 04:19:20;;;;;;;1.95;1.50;;;;;;;19.03;43.19;99812.84;2071790;28;20026;-66
2021/04/01 04:20:21;;;;;;;2.73;1.70;;;;;;;19.03;43.24;99812.84;2069163;28;20116;-66
2021/04/01 04:21:21;;;;;;;3.07;1.87;;;;;;;19.03;43.26;99815.56;2071975;28;20030;-65
2021/04/01 04:22:22;;;;;;;2.73;2.23;;;;;;;19.03;43.25;99819.19;2071247;28;20113;-65
2021/04/01 04:23:24;;;;;;;4.85;1.85;;;;;;;19.04;43.25;99817.31;2069560;28;20032;-65
2021/04/01 04:24:24;;;;;;;2.85;1.70;;;;;;;19.03;43.29;99819.19;2071282;28;20074;-65
2021/04/01 04:25:26;;;;;;;3.17;1.93;;;;;;;19.04;43.30;99820.03;2071111;28;20540;-65
2021/04/01 04:26:26;;;;;;;2.58;1.63;;;;;;;19.03;43.19;99812.84;2071642;28;20119;-65
2021/04/01 04:28:34;;;;;;;4.00;1.70;;;;;;;19.03;43.29;99823.78;2071019;28;20038;-66
2021/04/01 04:29:35;;;;;;;3.70;2.10;;;;;;;19.02;43.37;99822.91;2071859;28;20109;-66
2021/04/01 04:30:35;;;;;;;3.40;1.90;;;;;;;19.03;43.28;99827.38;2071264;28;20070;-65
2021/04/01 04:31:36;;;;;;;3.43;2.03;;;;;;;19.03;43.40;99823.78;2071335;28;20053;-65
2021/04/01 04:32:36;;;;;;;2.50;1.50;;;;;;;19.03;43.43;99826.50;2071005;28;20022;-66
2021/04/01 04:33:37;;;;;;;2.47;1.53;;;;;;;19.04;43.29;99822.78;2070346;28;20030;-65
2021/04/01 04:34:38;;;;;;;2.50;1.87;;;;;;;19.03;43.21;99821.91;2068278;28;20937;-65
2021/04/01 04:35:38;;;;;;;3.80;1.60;;;;;;;19.03;43.27;99823.78;2067282;28;20030;-66
2021/04/01 04:36:39;;;;;;;2.67;1.63;;;;;;;19.03;43.35;99816.47;2071778;28;20105;-65
2021/04/01 04:37:39;;;;;;;2.47;1.50;;;;;;;19.04;43.44;99814.59;2071156;28;20045;-65
2021/04/01 04:38:40;;;;;;;3.57;2.00;;;;;;;19.04;43.42;99811.84;2070307;28;20456;-65
2021/04/01 04:39:40;;;;;;;2.87;1.60;;;;;;;19.02;43.36;99816.59;2070353;28;20052;-66
2021/04/01 04:40:41;;;;;;;3.10;1.97;;;;;;;19.03;43.25;99819.19;2070941;28;20500;-66
2021/04/01 04:41:42;;;;;;;3.17;1.98;;;;;;;19.02;43.50;99808.41;2071513;28;20056;-66
2021/04/01 04:42:42;;;;;;;2.67;1.77;;;;;;;19.02;43.38;99809.25;2069722;28;20121;-66
2021/04/01 04:43:43;;;;;;;3.73;1.80;;;;;;;19.01;43.42;99813.03;2071415;28;20124;-65
2021/04/01 04:44:43;;;;;;;2.60;1.80;;;;;;;19.02;43.50;99811.13;2070460;28;20036;-65
2021/04/01 04:45:44;;;;;;;3.07;1.70;;;;;;;19.01;43.43;99806.66;2069421;28;20034;-65
2021/04/01 04:47:05;;;;;;;2.80;1.70;;;;;;;18.98;43.42;99805.13;2063508;28;20026;-65
2021/04/01 04:48:06;;;;;;;2.72;2.15;;;;;;;19.01;43.33;99809.41;2070953;28;20549;-65
2021/04/01 04:49:06;;;;;;;3.20;1.63;;;;;;;19.00;43.42;99803.09;2069953;28;20449;-65
2021/04/01 04:50:07;;;;;;;3.10;1.60;;;;;;;19.00;43.47;99805.81;2070483;28;20029;-66
2021/04/01 04:51:08;;;;;;;3.47;1.77;;;;;;;19.00;43.38;99802.25;2070371;28;20033;-66
2021/04/01 04:52:08;;;;;;;2.63;1.73;;;;;;;19.01;43.52;99804.81;2071811;28;20112;-66
2021/04/01 04:53:09;;;;;;;4.03;2.10;;;;;;;19.00;43.54;99802.25;2069034;28;20022;-65
2021/04/01 04:54:10;;;;;;;3.03;2.20;;;;;;;19.01;43.36;99809.41;2071041;28;20022;-65
2021/04/01 04:55:11;;;;;;;3.00;2.00;;;;;;;19.00;43.42;99797.63;2071292;28;20609;-65
2021/04/01 04:56:15;;;;;;;3.47;1.63;;;;;;;19.00;43.35;99805.81;2069461;28;20101;-66
2021/04/01 04:57:27;;;;;;;2.97;1.85;;;;;;;19.01;43.51;99801.22;2071570;28;20025;-65
2021/04/01 04:59:35;;;;;;;5.57;1.77;;;;;;;19.00;43.48;99796.78;2070127;28;20038;-65
2021/04/01 05:05:35;;;;;;;3.33;1.70;;;;;;;18.98;43.52;99798.78;2069101;28;20018;-66
2021/04/01 05:07:35;;;;;;;2.40;1.50;;;;;;;18.98;43.67;99799.66;2063235;28;20314;-67